sensor_id;sensor_type;location;lat;lon;timestamp;P1;durP1;ratioP1;P2;durP2;ratioP2
50671;SDS011;46021;55.882;37.654;2024-02-28T00:02:24;7.38;;;3.67;;
50671;SDS011;46021;55.882;37.654;2024-02-28T00:04:53;6.35;;;2.33;;
50671;SDS011;46021;55.882;37.654;2024-02-28T00:07:20;8.13;;;3.90;;
50671;SDS011;46021;55.882;37.654;2024-02-28T00:09:47;12.18;;;2.53;;
50671;SDS011;46021;55.882;37.654;2024-02-28T00:12:14;5.97;;;2.17;;
50671;SDS011;46021;55.882;37.654;2024-02-28T00:14:42;4.90;;;2.53;;
50671;SDS011;46021;55.882;37.654;2024-02-28T00:17:11;5.55;;;2.15;;
50671;SDS011;46021;55.882;37.654;2024-02-28T00:19:40;6.55;;;3.10;;
50671;SDS011;46021;55.882;37.654;2024-02-28T00:22:08;11.38;;;3.97;;
50671;SDS011;46021;55.882;37.654;2024-02-28T00:24:35;12.88;;;4.72;;
50671;SDS011;46021;55.882;37.654;2024-02-28T00:27:02;6.90;;;2.70;;
50671;SDS011;46021;55.882;37.654;2024-02-28T00:29:29;7.35;;;2.45;;
50671;SDS011;46021;55.882;37.654;2024-02-28T00:31:57;17.65;;;4.15;;
50671;SDS011;46021;55.882;37.654;2024-02-28T00:34:25;6.20;;;2.42;;
50671;SDS011;46021;55.882;37.654;2024-02-28T00:36:52;9.38;;;3.58;;
50671;SDS011;46021;55.882;37.654;2024-02-28T00:39:19;6.07;;;3.22;;
50671;SDS011;46021;55.882;37.654;2024-02-28T00:41:46;12.37;;;3.73;;
50671;SDS011;46021;55.882;37.654;2024-02-28T00:44:13;5.87;;;2.87;;
50671;SDS011;46021;55.882;37.654;2024-02-28T00:46:41;6.25;;;3.20;;
50671;SDS011;46021;55.882;37.654;2024-02-28T00:49:08;4.40;;;3.07;;
50671;SDS011;46021;55.882;37.654;2024-02-28T00:51:36;6.43;;;3.13;;
50671;SDS011;46021;55.882;37.654;2024-02-28T00:54:03;14.55;;;3.03;;
50671;SDS011;46021;55.882;37.654;2024-02-28T00:56:30;5.43;;;2.53;;
50671;SDS011;46021;55.882;37.654;2024-02-28T00:58:58;8.20;;;3.50;;
50671;SDS011;46021;55.882;37.654;2024-02-28T01:01:25;7.10;;;3.67;;
50671;SDS011;46021;55.882;37.654;2024-02-28T01:03:52;8.48;;;2.45;;
50671;SDS011;46021;55.882;37.654;2024-02-28T01:06:20;8.30;;;3.97;;
50671;SDS011;46021;55.882;37.654;2024-02-28T01:08:48;12.67;;;4.47;;
50671;SDS011;46021;55.882;37.654;2024-02-28T01:11:15;9.25;;;3.85;;
50671;SDS011;46021;55.882;37.654;2024-02-28T01:13:42;7.03;;;3.90;;
50671;SDS011;46021;55.882;37.654;2024-02-28T01:16:09;6.23;;;3.17;;
50671;SDS011;46021;55.882;37.654;2024-02-28T01:18:36;4.27;;;2.10;;
50671;SDS011;46021;55.882;37.654;2024-02-28T01:21:04;11.30;;;3.33;;
50671;SDS011;46021;55.882;37.654;2024-02-28T01:23:31;6.07;;;3.53;;
50671;SDS011;46021;55.882;37.654;2024-02-28T01:25:59;7.60;;;3.17;;
50671;SDS011;46021;55.882;37.654;2024-02-28T01:28:28;4.93;;;2.42;;
50671;SDS011;46021;55.882;37.654;2024-02-28T01:30:56;3.45;;;1.73;;
50671;SDS011;46021;55.882;37.654;2024-02-28T01:33:23;8.35;;;3.10;;
50671;SDS011;46021;55.882;37.654;2024-02-28T01:35:50;8.67;;;4.03;;
50671;SDS011;46021;55.882;37.654;2024-02-28T01:38:17;4.37;;;2.80;;
50671;SDS011;46021;55.882;37.654;2024-02-28T01:40:44;4.67;;;2.13;;
50671;SDS011;46021;55.882;37.654;2024-02-28T01:43:13;4.90;;;2.83;;
50671;SDS011;46021;55.882;37.654;2024-02-28T01:45:40;8.00;;;3.42;;
50671;SDS011;46021;55.882;37.654;2024-02-28T01:48:08;8.00;;;2.93;;
50671;SDS011;46021;55.882;37.654;2024-02-28T01:50:37;20.77;;;2.40;;
50671;SDS011;46021;55.882;37.654;2024-02-28T01:53:05;6.32;;;2.67;;
50671;SDS011;46021;55.882;37.654;2024-02-28T01:55:35;9.52;;;3.63;;
50671;SDS011;46021;55.882;37.654;2024-02-28T01:58:02;3.80;;;2.55;;
50671;SDS011;46021;55.882;37.654;2024-02-28T02:00:32;10.80;;;3.65;;
50671;SDS011;46021;55.882;37.654;2024-02-28T02:03:00;11.77;;;2.95;;
50671;SDS011;46021;55.882;37.654;2024-02-28T02:07:55;5.90;;;3.10;;
50671;SDS011;46021;55.882;37.654;2024-02-28T02:10:24;6.38;;;3.47;;
50671;SDS011;46021;55.882;37.654;2024-02-28T02:15:18;9.73;;;3.08;;
50671;SDS011;46021;55.882;37.654;2024-02-28T02:17:46;8.50;;;3.75;;
50671;SDS011;46021;55.882;37.654;2024-02-28T02:20:14;8.48;;;3.55;;
50671;SDS011;46021;55.882;37.654;2024-02-28T02:22:43;7.35;;;3.35;;
50671;SDS011;46021;55.882;37.654;2024-02-28T02:25:10;14.50;;;3.03;;
50671;SDS011;46021;55.882;37.654;2024-02-28T02:27:37;3.87;;;2.43;;
50671;SDS011;46021;55.882;37.654;2024-02-28T02:30:05;7.80;;;4.10;;
50671;SDS011;46021;55.882;37.654;2024-02-28T02:32:31;8.90;;;2.80;;
50671;SDS011;46021;55.882;37.654;2024-02-28T02:34:58;8.67;;;2.63;;
50671;SDS011;46021;55.882;37.654;2024-02-28T02:37:26;5.97;;;3.03;;
50671;SDS011;46021;55.882;37.654;2024-02-28T02:39:54;8.00;;;3.30;;
50671;SDS011;46021;55.882;37.654;2024-02-28T02:42:21;12.95;;;3.33;;
50671;SDS011;46021;55.882;37.654;2024-02-28T02:44:48;9.25;;;3.10;;
50671;SDS011;46021;55.882;37.654;2024-02-28T02:47:15;7.97;;;3.85;;
50671;SDS011;46021;55.882;37.654;2024-02-28T02:49:42;3.50;;;1.80;;
50671;SDS011;46021;55.882;37.654;2024-02-28T02:52:10;9.73;;;3.77;;
50671;SDS011;46021;55.882;37.654;2024-02-28T02:54:37;10.40;;;3.43;;
50671;SDS011;46021;55.882;37.654;2024-02-28T02:57:05;9.85;;;3.83;;
50671;SDS011;46021;55.882;37.654;2024-02-28T02:59:32;8.98;;;4.05;;
50671;SDS011;46021;55.882;37.654;2024-02-28T03:02:00;6.47;;;3.00;;
50671;SDS011;46021;55.882;37.654;2024-02-28T03:04:27;6.32;;;3.33;;
50671;SDS011;46021;55.882;37.654;2024-02-28T03:06:54;8.38;;;3.00;;
50671;SDS011;46021;55.882;37.654;2024-02-28T03:09:21;8.68;;;3.17;;
50671;SDS011;46021;55.882;37.654;2024-02-28T03:11:48;8.07;;;3.43;;
50671;SDS011;46021;55.882;37.654;2024-02-28T03:14:16;5.57;;;2.77;;
50671;SDS011;46021;55.882;37.654;2024-02-28T03:16:44;12.60;;;4.05;;
50671;SDS011;46021;55.882;37.654;2024-02-28T03:19:13;6.68;;;2.72;;
50671;SDS011;46021;55.882;37.654;2024-02-28T03:21:40;10.00;;;3.22;;
50671;SDS011;46021;55.882;37.654;2024-02-28T03:24:07;15.77;;;5.27;;
50671;SDS011;46021;55.882;37.654;2024-02-28T03:26:35;7.67;;;2.87;;
50671;SDS011;46021;55.882;37.654;2024-02-28T03:29:02;15.02;;;4.80;;
50671;SDS011;46021;55.882;37.654;2024-02-28T03:31:31;12.85;;;2.40;;
50671;SDS011;46021;55.882;37.654;2024-02-28T03:33:58;8.73;;;4.50;;
50671;SDS011;46021;55.882;37.654;2024-02-28T03:36:25;3.70;;;1.90;;
50671;SDS011;46021;55.882;37.654;2024-02-28T03:38:53;9.85;;;4.03;;
50671;SDS011;46021;55.882;37.654;2024-02-28T03:41:21;8.32;;;2.75;;
50671;SDS011;46021;55.882;37.654;2024-02-28T03:43:48;8.65;;;3.65;;
50671;SDS011;46021;55.882;37.654;2024-02-28T03:46:16;8.48;;;3.15;;
50671;SDS011;46021;55.882;37.654;2024-02-28T03:48:44;8.83;;;3.27;;
50671;SDS011;46021;55.882;37.654;2024-02-28T03:51:11;6.07;;;3.08;;
50671;SDS011;46021;55.882;37.654;2024-02-28T03:53:40;10.38;;;4.07;;
50671;SDS011;46021;55.882;37.654;2024-02-28T03:56:07;16.85;;;4.97;;
50671;SDS011;46021;55.882;37.654;2024-02-28T03:58:34;6.60;;;2.88;;
50671;SDS011;46021;55.882;37.654;2024-02-28T04:01:02;9.35;;;4.75;;
50671;SDS011;46021;55.882;37.654;2024-02-28T04:03:29;14.00;;;4.43;;
50671;SDS011;46021;55.882;37.654;2024-02-28T04:05:58;10.35;;;4.15;;
50671;SDS011;46021;55.882;37.654;2024-02-28T04:08:25;9.55;;;3.40;;
50671;SDS011;46021;55.882;37.654;2024-02-28T04:10:52;8.73;;;3.92;;
50671;SDS011;46021;55.882;37.654;2024-02-28T04:13:19;9.40;;;4.07;;
50671;SDS011;46021;55.882;37.654;2024-02-28T04:15:47;6.00;;;3.50;;
50671;SDS011;46021;55.882;37.654;2024-02-28T04:18:14;4.33;;;2.43;;
50671;SDS011;46021;55.882;37.654;2024-02-28T04:20:41;18.50;;;4.07;;
50671;SDS011;46021;55.882;37.654;2024-02-28T04:23:09;12.10;;;3.73;;
50671;SDS011;46021;55.882;37.654;2024-02-28T04:25:36;10.07;;;3.85;;
50671;SDS011;46021;55.882;37.654;2024-02-28T04:28:06;9.63;;;4.25;;
50671;SDS011;46021;55.882;37.654;2024-02-28T04:30:34;19.70;;;5.15;;
50671;SDS011;46021;55.882;37.654;2024-02-28T04:33:01;11.38;;;4.00;;
50671;SDS011;46021;55.882;37.654;2024-02-28T04:35:28;11.68;;;4.43;;
50671;SDS011;46021;55.882;37.654;2024-02-28T04:37:56;11.43;;;3.43;;
50671;SDS011;46021;55.882;37.654;2024-02-28T04:40:24;15.43;;;4.13;;
50671;SDS011;46021;55.882;37.654;2024-02-28T04:42:51;8.50;;;4.07;;
50671;SDS011;46021;55.882;37.654;2024-02-28T04:45:18;6.32;;;2.83;;
50671;SDS011;46021;55.882;37.654;2024-02-28T04:47:45;12.27;;;3.83;;
50671;SDS011;46021;55.882;37.654;2024-02-28T04:50:12;8.65;;;4.20;;
50671;SDS011;46021;55.882;37.654;2024-02-28T04:52:40;9.65;;;3.75;;
50671;SDS011;46021;55.882;37.654;2024-02-28T04:55:07;9.30;;;4.77;;
50671;SDS011;46021;55.882;37.654;2024-02-28T04:57:36;10.57;;;4.65;;
50671;SDS011;46021;55.882;37.654;2024-02-28T05:00:03;12.57;;;3.42;;
50671;SDS011;46021;55.882;37.654;2024-02-28T05:02:32;16.02;;;3.70;;
50671;SDS011;46021;55.882;37.654;2024-02-28T05:04:59;11.67;;;4.83;;
50671;SDS011;46021;55.882;37.654;2024-02-28T05:07:27;10.30;;;4.13;;
50671;SDS011;46021;55.882;37.654;2024-02-28T05:09:54;10.20;;;2.92;;
50671;SDS011;46021;55.882;37.654;2024-02-28T05:12:21;19.50;;;4.17;;
50671;SDS011;46021;55.882;37.654;2024-02-28T05:14:49;14.77;;;4.87;;
50671;SDS011;46021;55.882;37.654;2024-02-28T05:17:16;10.10;;;4.68;;
50671;SDS011;46021;55.882;37.654;2024-02-28T05:19:44;12.57;;;4.82;;
50671;SDS011;46021;55.882;37.654;2024-02-28T05:22:11;11.75;;;4.57;;
50671;SDS011;46021;55.882;37.654;2024-02-28T05:24:38;8.15;;;4.32;;
50671;SDS011;46021;55.882;37.654;2024-02-28T05:27:05;8.30;;;4.38;;
50671;SDS011;46021;55.882;37.654;2024-02-28T05:29:32;11.57;;;3.97;;
50671;SDS011;46021;55.882;37.654;2024-02-28T05:32:00;12.75;;;5.22;;
50671;SDS011;46021;55.882;37.654;2024-02-28T05:34:27;20.13;;;5.10;;
50671;SDS011;46021;55.882;37.654;2024-02-28T05:36:54;15.90;;;4.35;;
50671;SDS011;46021;55.882;37.654;2024-02-28T05:39:21;9.23;;;3.93;;
50671;SDS011;46021;55.882;37.654;2024-02-28T05:41:48;7.40;;;4.13;;
50671;SDS011;46021;55.882;37.654;2024-02-28T05:44:15;11.43;;;4.68;;
50671;SDS011;46021;55.882;37.654;2024-02-28T05:46:43;8.23;;;3.40;;
50671;SDS011;46021;55.882;37.654;2024-02-28T05:49:11;13.30;;;4.60;;
50671;SDS011;46021;55.882;37.654;2024-02-28T05:51:39;12.80;;;3.72;;
50671;SDS011;46021;55.882;37.654;2024-02-28T05:54:06;14.80;;;4.88;;
50671;SDS011;46021;55.882;37.654;2024-02-28T05:56:33;14.05;;;4.30;;
50671;SDS011;46021;55.882;37.654;2024-02-28T05:59:00;12.60;;;3.53;;
50671;SDS011;46021;55.882;37.654;2024-02-28T06:01:28;12.48;;;4.15;;
50671;SDS011;46021;55.882;37.654;2024-02-28T06:03:55;9.75;;;4.18;;
50671;SDS011;46021;55.882;37.654;2024-02-28T06:06:23;10.97;;;4.60;;
50671;SDS011;46021;55.882;37.654;2024-02-28T06:08:51;10.93;;;4.53;;
50671;SDS011;46021;55.882;37.654;2024-02-28T06:11:18;11.02;;;4.82;;
50671;SDS011;46021;55.882;37.654;2024-02-28T06:13:45;6.13;;;3.50;;
50671;SDS011;46021;55.882;37.654;2024-02-28T06:16:15;16.63;;;3.97;;
50671;SDS011;46021;55.882;37.654;2024-02-28T06:18:44;7.78;;;3.75;;
50671;SDS011;46021;55.882;37.654;2024-02-28T06:21:12;14.93;;;4.32;;
50671;SDS011;46021;55.882;37.654;2024-02-28T06:23:41;6.30;;;3.20;;
50671;SDS011;46021;55.882;37.654;2024-02-28T06:26:08;16.75;;;4.63;;
50671;SDS011;46021;55.882;37.654;2024-02-28T06:28:42;11.20;;;4.90;;
50671;SDS011;46021;55.882;37.654;2024-02-28T06:31:17;9.60;;;4.68;;
50671;SDS011;46021;55.882;37.654;2024-02-28T06:33:45;15.20;;;5.18;;
50671;SDS011;46021;55.882;37.654;2024-02-28T06:36:12;10.60;;;3.63;;
50671;SDS011;46021;55.882;37.654;2024-02-28T06:38:41;14.38;;;4.30;;
50671;SDS011;46021;55.882;37.654;2024-02-28T06:41:08;8.80;;;3.75;;
50671;SDS011;46021;55.882;37.654;2024-02-28T06:43:35;8.65;;;4.45;;
50671;SDS011;46021;55.882;37.654;2024-02-28T06:46:02;15.40;;;5.13;;
50671;SDS011;46021;55.882;37.654;2024-02-28T06:48:30;17.70;;;4.18;;
50671;SDS011;46021;55.882;37.654;2024-02-28T06:50:57;9.27;;;4.20;;
50671;SDS011;46021;55.882;37.654;2024-02-28T06:53:25;12.60;;;3.88;;
50671;SDS011;46021;55.882;37.654;2024-02-28T06:55:54;7.97;;;3.85;;
50671;SDS011;46021;55.882;37.654;2024-02-28T06:58:21;13.43;;;4.32;;
50671;SDS011;46021;55.882;37.654;2024-02-28T07:00:49;13.20;;;4.35;;
50671;SDS011;46021;55.882;37.654;2024-02-28T07:03:17;15.63;;;4.30;;
50671;SDS011;46021;55.882;37.654;2024-02-28T07:05:44;13.20;;;5.00;;
50671;SDS011;46021;55.882;37.654;2024-02-28T07:08:11;14.57;;;4.32;;
50671;SDS011;46021;55.882;37.654;2024-02-28T07:10:38;20.47;;;5.47;;
50671;SDS011;46021;55.882;37.654;2024-02-28T07:13:10;12.30;;;4.38;;
50671;SDS011;46021;55.882;37.654;2024-02-28T07:15:37;14.50;;;5.72;;
50671;SDS011;46021;55.882;37.654;2024-02-28T07:18:05;11.82;;;4.95;;
50671;SDS011;46021;55.882;37.654;2024-02-28T07:20:32;11.70;;;5.13;;
50671;SDS011;46021;55.882;37.654;2024-02-28T07:23:00;8.75;;;3.90;;
50671;SDS011;46021;55.882;37.654;2024-02-28T07:25:27;9.97;;;4.00;;
50671;SDS011;46021;55.882;37.654;2024-02-28T07:27:56;16.05;;;4.38;;
50671;SDS011;46021;55.882;37.654;2024-02-28T07:30:26;13.55;;;4.72;;
50671;SDS011;46021;55.882;37.654;2024-02-28T07:32:53;16.25;;;6.72;;
50671;SDS011;46021;55.882;37.654;2024-02-28T07:35:20;9.27;;;3.67;;
50671;SDS011;46021;55.882;37.654;2024-02-28T07:37:49;7.80;;;4.20;;
50671;SDS011;46021;55.882;37.654;2024-02-28T07:40:16;14.43;;;5.80;;
50671;SDS011;46021;55.882;37.654;2024-02-28T07:42:43;10.20;;;5.05;;
50671;SDS011;46021;55.882;37.654;2024-02-28T07:45:10;20.57;;;5.43;;
50671;SDS011;46021;55.882;37.654;2024-02-28T07:47:39;28.40;;;11.50;;
50671;SDS011;46021;55.882;37.654;2024-02-28T07:50:07;14.85;;;5.40;;
50671;SDS011;46021;55.882;37.654;2024-02-28T07:52:34;17.77;;;6.30;;
50671;SDS011;46021;55.882;37.654;2024-02-28T07:55:02;22.92;;;4.95;;
50671;SDS011;46021;55.882;37.654;2024-02-28T07:57:31;13.45;;;5.53;;
50671;SDS011;46021;55.882;37.654;2024-02-28T07:59:58;14.35;;;4.78;;
50671;SDS011;46021;55.882;37.654;2024-02-28T08:02:26;15.65;;;5.53;;
50671;SDS011;46021;55.882;37.654;2024-02-28T08:04:55;11.40;;;5.30;;
50671;SDS011;46021;55.882;37.654;2024-02-28T08:07:23;10.60;;;5.20;;
50671;SDS011;46021;55.882;37.654;2024-02-28T08:09:50;13.57;;;5.30;;
50671;SDS011;46021;55.882;37.654;2024-02-28T08:12:17;10.07;;;4.20;;
50671;SDS011;46021;55.882;37.654;2024-02-28T08:14:45;24.00;;;5.75;;
50671;SDS011;46021;55.882;37.654;2024-02-28T08:17:12;18.77;;;8.65;;
50671;SDS011;46021;55.882;37.654;2024-02-28T08:22:09;18.08;;;6.35;;
50671;SDS011;46021;55.882;37.654;2024-02-28T08:24:37;13.02;;;5.15;;
50671;SDS011;46021;55.882;37.654;2024-02-28T08:27:04;30.70;;;5.90;;
50671;SDS011;46021;55.882;37.654;2024-02-28T08:29:31;17.17;;;6.88;;
50671;SDS011;46021;55.882;37.654;2024-02-28T08:32:01;19.08;;;6.57;;
50671;SDS011;46021;55.882;37.654;2024-02-28T08:34:28;16.92;;;5.38;;
50671;SDS011;46021;55.882;37.654;2024-02-28T08:36:55;27.15;;;8.50;;
50671;SDS011;46021;55.882;37.654;2024-02-28T08:39:24;13.87;;;5.63;;
50671;SDS011;46021;55.882;37.654;2024-02-28T08:41:51;21.60;;;8.55;;
50671;SDS011;46021;55.882;37.654;2024-02-28T08:44:18;16.90;;;5.07;;
50671;SDS011;46021;55.882;37.654;2024-02-28T08:46:46;20.17;;;8.30;;
50671;SDS011;46021;55.882;37.654;2024-02-28T08:49:13;26.15;;;6.15;;
50671;SDS011;46021;55.882;37.654;2024-02-28T08:51:40;16.40;;;7.85;;
50671;SDS011;46021;55.882;37.654;2024-02-28T08:54:08;17.70;;;4.72;;
50671;SDS011;46021;55.882;37.654;2024-02-28T08:56:36;12.30;;;4.97;;
50671;SDS011;46021;55.882;37.654;2024-02-28T08:59:04;15.25;;;6.95;;
50671;SDS011;46021;55.882;37.654;2024-02-28T09:01:31;19.45;;;8.82;;
50671;SDS011;46021;55.882;37.654;2024-02-28T09:06:26;13.70;;;7.22;;
50671;SDS011;46021;55.882;37.654;2024-02-28T09:08:53;11.80;;;6.28;;
50671;SDS011;46021;55.882;37.654;2024-02-28T09:11:21;19.40;;;7.77;;
50671;SDS011;46021;55.882;37.654;2024-02-28T09:13:49;14.73;;;7.03;;
50671;SDS011;46021;55.882;37.654;2024-02-28T09:16:16;15.25;;;7.15;;
50671;SDS011;46021;55.882;37.654;2024-02-28T09:18:44;14.77;;;6.32;;
50671;SDS011;46021;55.882;37.654;2024-02-28T09:21:11;17.35;;;6.95;;
50671;SDS011;46021;55.882;37.654;2024-02-28T09:23:38;14.23;;;6.65;;
50671;SDS011;46021;55.882;37.654;2024-02-28T09:26:05;16.75;;;6.38;;
50671;SDS011;46021;55.882;37.654;2024-02-28T09:28:33;13.63;;;6.43;;
50671;SDS011;46021;55.882;37.654;2024-02-28T09:31:02;12.57;;;7.35;;
50671;SDS011;46021;55.882;37.654;2024-02-28T09:33:29;12.70;;;6.68;;
50671;SDS011;46021;55.882;37.654;2024-02-28T09:35:57;15.20;;;6.72;;
50671;SDS011;46021;55.882;37.654;2024-02-28T09:38:24;17.23;;;7.68;;
50671;SDS011;46021;55.882;37.654;2024-02-28T09:40:51;15.15;;;7.63;;
50671;SDS011;46021;55.882;37.654;2024-02-28T09:43:19;14.82;;;7.13;;
50671;SDS011;46021;55.882;37.654;2024-02-28T09:45:54;16.48;;;6.95;;
50671;SDS011;46021;55.882;37.654;2024-02-28T09:48:28;11.43;;;6.60;;
50671;SDS011;46021;55.882;37.654;2024-02-28T09:50:56;12.88;;;6.35;;
50671;SDS011;46021;55.882;37.654;2024-02-28T09:53:24;12.82;;;7.63;;
50671;SDS011;46021;55.882;37.654;2024-02-28T09:55:51;15.68;;;7.20;;
50671;SDS011;46021;55.882;37.654;2024-02-28T09:58:19;21.75;;;7.35;;
50671;SDS011;46021;55.882;37.654;2024-02-28T10:00:46;13.98;;;7.32;;
50671;SDS011;46021;55.882;37.654;2024-02-28T10:03:17;15.27;;;7.28;;
50671;SDS011;46021;55.882;37.654;2024-02-28T10:05:46;13.68;;;7.25;;
50671;SDS011;46021;55.882;37.654;2024-02-28T10:08:14;11.57;;;6.50;;
50671;SDS011;46021;55.882;37.654;2024-02-28T10:10:44;15.15;;;6.72;;
50671;SDS011;46021;55.882;37.654;2024-02-28T10:13:13;18.60;;;7.15;;
50671;SDS011;46021;55.882;37.654;2024-02-28T10:15:42;13.48;;;7.35;;
50671;SDS011;46021;55.882;37.654;2024-02-28T10:18:10;15.40;;;8.13;;
50671;SDS011;46021;55.882;37.654;2024-02-28T10:20:37;14.73;;;6.60;;
50671;SDS011;46021;55.882;37.654;2024-02-28T10:23:06;15.00;;;6.80;;
50671;SDS011;46021;55.882;37.654;2024-02-28T10:25:41;18.27;;;7.30;;
50671;SDS011;46021;55.882;37.654;2024-02-28T10:28:09;11.88;;;6.63;;
50671;SDS011;46021;55.882;37.654;2024-02-28T10:33:09;12.35;;;7.28;;
50671;SDS011;46021;55.882;37.654;2024-02-28T10:35:37;14.60;;;6.63;;
50671;SDS011;46021;55.882;37.654;2024-02-28T10:38:06;20.33;;;7.10;;
50671;SDS011;46021;55.882;37.654;2024-02-28T10:40:36;12.57;;;5.90;;
50671;SDS011;46021;55.882;37.654;2024-02-28T10:43:03;16.15;;;6.80;;
50671;SDS011;46021;55.882;37.654;2024-02-28T10:45:32;17.27;;;7.28;;
50671;SDS011;46021;55.882;37.654;2024-02-28T10:48:02;15.88;;;6.90;;
50671;SDS011;46021;55.882;37.654;2024-02-28T10:50:31;16.92;;;6.97;;
50671;SDS011;46021;55.882;37.654;2024-02-28T10:52:59;15.60;;;6.85;;
50671;SDS011;46021;55.882;37.654;2024-02-28T10:55:31;16.13;;;7.22;;
50671;SDS011;46021;55.882;37.654;2024-02-28T10:58:02;15.90;;;7.80;;
50671;SDS011;46021;55.882;37.654;2024-02-28T11:00:30;14.43;;;6.93;;
50671;SDS011;46021;55.882;37.654;2024-02-28T11:02:59;11.95;;;6.95;;
50671;SDS011;46021;55.882;37.654;2024-02-28T11:05:36;18.13;;;7.38;;
50671;SDS011;46021;55.882;37.654;2024-02-28T11:08:05;17.00;;;8.05;;
50671;SDS011;46021;55.882;37.654;2024-02-28T11:10:36;15.23;;;7.35;;
50671;SDS011;46021;55.882;37.654;2024-02-28T11:13:08;16.42;;;7.70;;
50671;SDS011;46021;55.882;37.654;2024-02-28T11:15:36;14.15;;;7.10;;
50671;SDS011;46021;55.882;37.654;2024-02-28T11:18:06;14.45;;;8.32;;
50671;SDS011;46021;55.882;37.654;2024-02-28T11:20:35;13.48;;;7.15;;
50671;SDS011;46021;55.882;37.654;2024-02-28T11:23:02;18.17;;;7.47;;
50671;SDS011;46021;55.882;37.654;2024-02-28T11:25:32;13.30;;;7.07;;
50671;SDS011;46021;55.882;37.654;2024-02-28T11:28:01;16.02;;;7.68;;
50671;SDS011;46021;55.882;37.654;2024-02-28T11:30:28;25.40;;;12.48;;
50671;SDS011;46021;55.882;37.654;2024-02-28T11:32:56;15.32;;;7.53;;
50671;SDS011;46021;55.882;37.654;2024-02-28T11:35:24;17.75;;;7.57;;
50671;SDS011;46021;55.882;37.654;2024-02-28T11:37:52;18.65;;;7.88;;
50671;SDS011;46021;55.882;37.654;2024-02-28T11:40:23;20.05;;;7.97;;
50671;SDS011;46021;55.882;37.654;2024-02-28T11:42:51;14.48;;;7.85;;
50671;SDS011;46021;55.882;37.654;2024-02-28T11:45:20;14.55;;;7.55;;
50671;SDS011;46021;55.882;37.654;2024-02-28T11:47:47;16.23;;;8.02;;
50671;SDS011;46021;55.882;37.654;2024-02-28T11:50:15;15.07;;;8.27;;
50671;SDS011;46021;55.882;37.654;2024-02-28T11:52:44;24.40;;;8.23;;
50671;SDS011;46021;55.882;37.654;2024-02-28T11:55:11;17.85;;;8.65;;
50671;SDS011;46021;55.882;37.654;2024-02-28T11:57:38;14.65;;;8.32;;
50671;SDS011;46021;55.882;37.654;2024-02-28T12:00:06;14.98;;;7.45;;
50671;SDS011;46021;55.882;37.654;2024-02-28T12:02:37;11.75;;;7.40;;
50671;SDS011;46021;55.882;37.654;2024-02-28T12:05:05;15.10;;;8.23;;
50671;SDS011;46021;55.882;37.654;2024-02-28T12:07:33;13.45;;;7.88;;
50671;SDS011;46021;55.882;37.654;2024-02-28T12:10:00;16.50;;;8.25;;
50671;SDS011;46021;55.882;37.654;2024-02-28T12:12:29;15.15;;;8.10;;
50671;SDS011;46021;55.882;37.654;2024-02-28T12:14:57;18.00;;;9.15;;
50671;SDS011;46021;55.882;37.654;2024-02-28T12:17:25;13.05;;;8.05;;
50671;SDS011;46021;55.882;37.654;2024-02-28T12:19:54;15.13;;;7.85;;
50671;SDS011;46021;55.882;37.654;2024-02-28T12:22:21;18.50;;;7.93;;
50671;SDS011;46021;55.882;37.654;2024-02-28T12:24:48;20.83;;;8.05;;
50671;SDS011;46021;55.882;37.654;2024-02-28T12:27:16;24.05;;;8.52;;
50671;SDS011;46021;55.882;37.654;2024-02-28T12:29:43;20.10;;;7.83;;
50671;SDS011;46021;55.882;37.654;2024-02-28T12:32:10;19.37;;;7.87;;
50671;SDS011;46021;55.882;37.654;2024-02-28T12:34:37;12.90;;;7.95;;
50671;SDS011;46021;55.882;37.654;2024-02-28T12:37:06;14.90;;;7.65;;
50671;SDS011;46021;55.882;37.654;2024-02-28T12:39:33;23.08;;;8.20;;
50671;SDS011;46021;55.882;37.654;2024-02-28T12:42:00;17.25;;;7.97;;
50671;SDS011;46021;55.882;37.654;2024-02-28T12:44:27;16.00;;;7.32;;
50671;SDS011;46021;55.882;37.654;2024-02-28T12:46:55;22.45;;;7.65;;
50671;SDS011;46021;55.882;37.654;2024-02-28T12:49:22;15.80;;;7.90;;
50671;SDS011;46021;55.882;37.654;2024-02-28T12:51:49;20.85;;;7.55;;
50671;SDS011;46021;55.882;37.654;2024-02-28T12:54:18;18.50;;;7.75;;
50671;SDS011;46021;55.882;37.654;2024-02-28T12:56:46;25.38;;;8.80;;
50671;SDS011;46021;55.882;37.654;2024-02-28T12:59:13;16.40;;;7.80;;
50671;SDS011;46021;55.882;37.654;2024-02-28T13:01:41;17.55;;;7.90;;
50671;SDS011;46021;55.882;37.654;2024-02-28T13:04:09;14.77;;;7.60;;
50671;SDS011;46021;55.882;37.654;2024-02-28T13:06:36;15.10;;;7.73;;
50671;SDS011;46021;55.882;37.654;2024-02-28T13:09:05;22.10;;;8.82;;
50671;SDS011;46021;55.882;37.654;2024-02-28T13:11:39;15.82;;;7.72;;
50671;SDS011;46021;55.882;37.654;2024-02-28T13:14:06;13.65;;;7.93;;
50671;SDS011;46021;55.882;37.654;2024-02-28T13:16:34;17.75;;;8.60;;
50671;SDS011;46021;55.882;37.654;2024-02-28T13:19:01;22.88;;;8.55;;
50671;SDS011;46021;55.882;37.654;2024-02-28T13:21:30;16.85;;;8.25;;
50671;SDS011;46021;55.882;37.654;2024-02-28T13:23:58;19.35;;;8.80;;
50671;SDS011;46021;55.882;37.654;2024-02-28T13:26:26;19.80;;;8.38;;
50671;SDS011;46021;55.882;37.654;2024-02-28T13:28:55;18.27;;;8.23;;
50671;SDS011;46021;55.882;37.654;2024-02-28T13:31:22;20.65;;;8.13;;
50671;SDS011;46021;55.882;37.654;2024-02-28T13:33:49;15.50;;;8.17;;
50671;SDS011;46021;55.882;37.654;2024-02-28T13:36:16;18.63;;;9.63;;
50671;SDS011;46021;55.882;37.654;2024-02-28T13:38:43;18.42;;;9.07;;
50671;SDS011;46021;55.882;37.654;2024-02-28T13:41:10;22.17;;;9.05;;
50671;SDS011;46021;55.882;37.654;2024-02-28T13:43:38;20.90;;;9.23;;
50671;SDS011;46021;55.882;37.654;2024-02-28T13:46:06;19.57;;;9.37;;
50671;SDS011;46021;55.882;37.654;2024-02-28T13:48:35;21.02;;;9.50;;
50671;SDS011;46021;55.882;37.654;2024-02-28T13:51:02;19.97;;;9.17;;
50671;SDS011;46021;55.882;37.654;2024-02-28T13:53:31;18.38;;;9.75;;
50671;SDS011;46021;55.882;37.654;2024-02-28T13:55:58;16.80;;;9.20;;
50671;SDS011;46021;55.882;37.654;2024-02-28T13:58:25;21.92;;;10.43;;
50671;SDS011;46021;55.882;37.654;2024-02-28T14:03:22;62.42;;;27.38;;
50671;SDS011;46021;55.882;37.654;2024-02-28T14:05:50;21.38;;;11.63;;
50671;SDS011;46021;55.882;37.654;2024-02-28T14:08:18;20.55;;;10.18;;
50671;SDS011;46021;55.882;37.654;2024-02-28T14:10:45;23.73;;;9.20;;
50671;SDS011;46021;55.882;37.654;2024-02-28T14:13:12;18.25;;;8.52;;
50671;SDS011;46021;55.882;37.654;2024-02-28T14:15:43;20.52;;;9.02;;
50671;SDS011;46021;55.882;37.654;2024-02-28T14:18:11;22.63;;;9.63;;
50671;SDS011;46021;55.882;37.654;2024-02-28T14:20:39;18.97;;;8.97;;
50671;SDS011;46021;55.882;37.654;2024-02-28T14:23:07;27.73;;;10.20;;
50671;SDS011;46021;55.882;37.654;2024-02-28T14:25:35;18.63;;;9.50;;
50671;SDS011;46021;55.882;37.654;2024-02-28T14:28:02;22.67;;;8.23;;
50671;SDS011;46021;55.882;37.654;2024-02-28T14:30:30;18.60;;;9.30;;
50671;SDS011;46021;55.882;37.654;2024-02-28T14:32:57;18.77;;;9.80;;
50671;SDS011;46021;55.882;37.654;2024-02-28T14:35:24;17.60;;;7.82;;
50671;SDS011;46021;55.882;37.654;2024-02-28T14:37:53;25.33;;;6.77;;
50671;SDS011;46021;55.882;37.654;2024-02-28T14:40:22;16.02;;;8.85;;
50671;SDS011;46021;55.882;37.654;2024-02-28T14:42:49;9.07;;;4.68;;
50671;SDS011;46021;55.882;37.654;2024-02-28T14:45:16;12.43;;;4.53;;